Time;durP1;ratioP1;P1;durP2;ratioP2;P2;SDS_P1;SDS_P2;PMS_P1;PMS_P2;Temp;Humidity;BMP_temperature;BMP_pressure;BME280_temperature;BME280_humidity;BME280_pressure;Samples;Min_cycle;Max_cycle;Signal;HPM_P1;HPM_P2
2022/06/03 00:00:38;;;;;;;6.53;4.20;;;;;;;;;;4933296;29;20118;-86
2022/06/03 00:03:23;;;;;;;6.15;4.38;;;;;;;;;;4933060;29;20028;-76
2022/06/03 00:05:49;;;;;;;8.55;4.60;;;;;;;;;;4917337;29;20036;-76
2022/06/03 00:08:24;;;;;;;7.60;4.32;;;;;;;;;;4945681;28;20098;-76
2022/06/03 00:11:08;;;;;;;6.13;4.60;;;;;;;;;;4950936;29;20505;-78
2022/06/03 00:14:00;;;;;;;6.28;4.47;;;;;;;;;;4953040;29;20035;-76
2022/06/03 00:16:41;;;;;;;6.95;4.30;;;;;;;;;;4951340;29;20031;-84
2022/06/03 00:19:18;;;;;;;6.72;4.20;;;;;;;;;;4952625;28;20608;-78
2022/06/03 00:22:06;;;;;;;7.43;4.55;;;;;;;;;;4953334;29;20438;-76
2022/06/03 00:24:32;;;;;;;9.13;4.45;;;;;;;;;;4953295;29;20262;-76
2022/06/03 00:27:05;;;;;;;5.70;4.50;;;;;;;;;;4951696;28;20034;-85
2022/06/03 00:29:40;;;;;;;5.53;4.03;;;;;;;;;;4953579;28;20027;-86
2022/06/03 00:32:24;;;;;;;9.15;4.30;;;;;;;;;;4956693;29;20051;-84
2022/06/03 00:34:53;;;;;;;5.07;4.20;;;;;;;;;;4959577;29;20027;-83
2022/06/03 00:37:38;;;;;;;5.85;4.40;;;;;;;;;;4977278;28;20100;-85
2022/06/03 00:40:09;;;;;;;6.85;3.88;;;;;;;;;;5035417;28;20021;-82
2022/06/03 00:42:55;;;;;;;7.57;4.10;;;;;;;;;;5022492;28;20022;-82
2022/06/03 00:45:37;;;;;;;5.43;3.85;;;;;;;;;;5015320;28;20041;-81
2022/06/03 00:48:22;;;;;;;5.82;3.80;;;;;;;;;;5028390;28;20029;-83
2022/06/03 00:51:00;;;;;;;6.40;4.35;;;;;;;;;;5059449;28;20089;-75
2022/06/03 00:53:45;;;;;;;4.47;3.80;;;;;;;;;;5063904;28;20078;-84
2022/06/03 00:56:11;;;;;;;4.05;3.60;;;;;;;;;;5017346;28;20100;-75
2022/06/03 00:58:45;;;;;;;7.65;4.00;;;;;;;;;;5016804;28;20105;-75
2022/06/03 01:01:11;;;;;;;;;;;;;;;;;;5019204;28;20041;-75
2022/06/03 01:03:46;;;;;;;7.25;4.30;;;;;;;;;;5015320;28;19905;-78
2022/06/03 01:06:22;;;;;;;7.05;3.90;;;;;;;;;;5017918;28;20041;-74
2022/06/03 01:08:57;;;;;;;6.70;3.80;;;;;;;;;;5000652;28;20026;-80
2022/06/03 01:11:42;;;;;;;5.85;3.80;;;;;;;;;;5019341;28;20400;-82
2022/06/03 01:14:14;;;;;;;6.85;4.00;;;;;;;;;;5018133;28;20038;-83
2022/06/03 01:16:53;;;;;;;4.30;3.90;;;;;;;;;;5021234;28;20040;-76
2022/06/03 01:19:28;;;;;;;6.68;4.30;;;;;;;;;;5019750;28;20021;-76
2022/06/03 01:21:54;;;;;;;5.95;3.67;;;;;;;;;;5034282;28;20034;-77
2022/06/03 01:24:55;;;;;;;4.65;3.42;;;;;;;;;;5036235;28;20134;-77
2022/06/03 01:27:27;;;;;;;8.30;3.60;;;;;;;;;;4954885;29;20471;-84
2022/06/03 01:29:56;;;;;;;5.05;3.58;;;;;;;;;;4955693;28;20398;-76
2022/06/03 01:32:28;;;;;;;7.45;3.60;;;;;;;;;;4957075;29;20042;-79
2022/06/03 01:35:12;;;;;;;4.93;3.60;;;;;;;;;;4957203;29;20042;-76
2022/06/03 01:37:54;;;;;;;5.50;3.65;;;;;;;;;;4945678;29;20035;-80
2022/06/03 01:40:35;;;;;;;6.93;3.42;;;;;;;;;;4956772;28;20070;-75
2022/06/03 01:43:10;;;;;;;5.03;3.63;;;;;;;;;;4973581;29;20027;-79
2022/06/03 01:45:52;;;;;;;4.03;3.35;;;;;;;;;;4960722;28;20067;-81
2022/06/03 01:48:21;;;;;;;5.32;3.60;;;;;;;;;;4959253;29;20043;-75
2022/06/03 01:50:53;;;;;;;4.05;3.20;;;;;;;;;;4963096;29;20038;-75
2022/06/03 01:53:25;;;;;;;4.30;3.20;;;;;;;;;;4960486;29;20095;-75
2022/06/03 01:56:00;;;;;;;4.90;3.42;;;;;;;;;;4958742;29;20122;-77
2022/06/03 01:58:54;;;;;;;5.07;3.30;;;;;;;;;;4958106;29;20038;-77
2022/06/03 02:01:38;;;;;;;5.03;3.55;;;;;;;;;;4979054;28;20041;-76
2022/06/03 02:04:30;;;;;;;5.07;3.38;;;;;;;;;;5038421;28;20387;-76
2022/06/03 02:07:20;;;;;;;4.80;3.20;;;;;;;;;;5026545;28;20034;-82
2022/06/03 02:10:06;;;;;;;8.98;3.50;;;;;;;;;;5031250;28;20026;-81
2022/06/03 02:12:55;;;;;;;5.28;2.90;;;;;;;;;;5030804;28;20054;-79
2022/06/03 02:15:34;;;;;;;5.10;3.10;;;;;;;;;;5027101;28;20375;-83
2022/06/03 02:18:19;;;;;;;4.68;3.25;;;;;;;;;;5043252;28;20033;-79
2022/06/03 02:20:54;;;;;;;5.35;2.88;;;;;;;;;;5039728;28;20053;-76
2022/06/03 02:23:23;;;;;;;5.30;3.10;;;;;;;;;;5045042;28;20402;-75
2022/06/03 02:26:08;;;;;;;4.10;2.95;;;;;;;;;;5041687;28;20033;-74
2022/06/03 02:28:40;;;;;;;3.13;2.83;;;;;;;;;;5031124;28;20037;-75
2022/06/03 02:31:18;;;;;;;5.40;3.05;;;;;;;;;;5025651;28;20080;-74
2022/06/03 02:34:02;;;;;;;4.05;2.90;;;;;;;;;;5018847;28;20113;-75
2022/06/03 02:36:37;;;;;;;5.22;3.10;;;;;;;;;;5048341;28;20006;-75
2022/06/03 02:39:15;;;;;;;5.80;3.22;;;;;;;;;;5036566;28;20030;-75
2022/06/03 02:41:44;;;;;;;4.50;3.00;;;;;;;;;;5028558;28;20042;-75
2022/06/03 02:44:10;;;;;;;5.90;3.13;;;;;;;;;;5027160;28;20026;-81
2022/06/03 02:46:55;;;;;;;4.47;2.60;;;;;;;;;;5025239;28;20052;-74
2022/06/03 02:49:40;;;;;;;5.05;3.08;;;;;;;;;;5026698;28;20026;-75
2022/06/03 02:52:18;;;;;;;7.75;3.38;;;;;;;;;;5030790;28;20032;-74
2022/06/03 02:55:05;;;;;;;13.13;3.53;;;;;;;;;;5033427;28;20038;-76
2022/06/03 02:57:43;;;;;;;5.50;3.17;;;;;;;;;;5028727;28;20026;-77
2022/06/03 03:00:12;;;;;;;4.82;3.05;;;;;;;;;;5033781;28;20026;-78
2022/06/03 03:02:57;;;;;;;4.22;3.15;;;;;;;;;;5055066;23;20057;-75
2022/06/03 03:05:46;;;;;;;5.05;3.00;;;;;;;;;;5027975;28;20030;-76
2022/06/03 03:08:28;;;;;;;9.73;3.47;;;;;;;;;;5032966;28;20045;-75
2022/06/03 03:11:12;;;;;;;5.85;3.03;;;;;;;;;;5036760;28;20097;-74
2022/06/03 03:13:50;;;;;;;5.32;3.00;;;;;;;;;;5050379;28;20021;-75
2022/06/03 03:16:31;;;;;;;7.38;3.20;;;;;;;;;;5051718;28;20037;-77
2022/06/03 03:19:00;;;;;;;5.10;3.05;;;;;;;;;;5054400;28;20036;-77
2022/06/03 03:21:42;;;;;;;5.38;3.15;;;;;;;;;;5053037;28;20021;-75
2022/06/03 03:24:28;;;;;;;7.18;3.10;;;;;;;;;;5030144;28;20065;-75
2022/06/03 03:27:13;;;;;;;5.45;3.40;;;;;;;;;;5012801;28;20022;-76
2022/06/03 03:29:39;;;;;;;8.13;3.10;;;;;;;;;;5031403;28;20010;-75
2022/06/03 03:32:12;;;;;;;8.52;3.30;;;;;;;;;;5022319;28;20113;-75
2022/06/03 03:34:57;;;;;;;10.20;3.45;;;;;;;;;;5012793;28;20018;-75
2022/06/03 03:37:41;;;;;;;5.55;3.33;;;;;;;;;;5009589;28;20033;-76
2022/06/03 03:40:07;;;;;;;4.38;3.00;;;;;;;;;;5029204;28;20022;-77
2022/06/03 03:42:46;;;;;;;4.63;3.05;;;;;;;;;;5029106;28;20072;-75
2022/06/03 03:45:18;;;;;;;8.88;3.47;;;;;;;;;;5012024;28;20026;-75
2022/06/03 03:47:44;;;;;;;5.90;2.88;;;;;;;;;;5015798;28;20108;-76
2022/06/03 03:50:28;;;;;;;4.53;3.00;;;;;;;;;;4999135;28;20088;-83
2022/06/03 03:53:09;;;;;;;9.05;3.85;;;;;;;;;;5006372;28;20042;-78
2022/06/03 03:55:53;;;;;;;4.95;3.15;;;;;;;;;;5003911;28;20041;-75
2022/06/03 03:58:41;;;;;;;4.78;3.10;;;;;;;;;;5016492;28;20026;-76
2022/06/03 04:01:15;;;;;;;5.40;3.00;;;;;;;;;;5004575;28;20062;-80
2022/06/03 04:04:00;;;;;;;5.45;2.75;;;;;;;;;;5010787;28;20041;-78
2022/06/03 04:06:44;;;;;;;5.43;2.92;;;;;;;;;;5010922;28;20046;-76
2022/06/03 04:09:19;;;;;;;6.10;3.20;;;;;;;;;;5003603;28;20030;-80
2022/06/03 04:11:56;;;;;;;10.57;3.35;;;;;;;;;;5029764;28;20044;-77
2022/06/03 04:14:41;;;;;;;6.30;3.55;;;;;;;;;;5028396;28;20030;-82
2022/06/03 04:17:27;;;;;;;4.60;3.20;;;;;;;;;;5023636;28;20056;-76
2022/06/03 04:20:05;;;;;;;8.68;3.17;;;;;;;;;;5012377;28;20101;-76
2022/06/03 04:22:34;;;;;;;5.63;2.92;;;;;;;;;;5021926;28;20029;-75
2022/06/03 04:25:19;;;;;;;6.88;3.25;;;;;;;;;;5019558;28;20049;-75
2022/06/03 04:28:13;;;;;;;10.93;3.28;;;;;;;;;;5005344;28;20022;-75
2022/06/03 04:30:39;;;;;;;11.80;3.97;;;;;;;;;;5011120;28;20551;-77
2022/06/03 04:33:05;;;;;;;14.05;3.80;;;;;;;;;;5004712;28;20483;-82
2022/06/03 04:35:34;;;;;;;8.82;3.60;;;;;;;;;;5006208;28;20093;-83
2022/06/03 04:38:00;;;;;;;16.27;5.50;;;;;;;;;;5012377;28;20107;-86
2022/06/03 04:40:42;;;;;;;15.63;5.18;;;;;;;;;;5001711;28;20117;-77
2022/06/03 04:43:31;;;;;;;16.35;4.63;;;;;;;;;;4999795;28;20112;-79
2022/06/03 04:46:20;;;;;;;9.98;3.70;;;;;;;;;;5006761;28;20049;-80
2022/06/03 04:48:53;;;;;;;7.38;3.45;;;;;;;;;;5012981;28;20113;-79
2022/06/03 04:51:33;;;;;;;6.50;3.22;;;;;;;;;;5009209;28;20037;-87
2022/06/03 04:54:02;;;;;;;8.15;3.20;;;;;;;;;;4995299;28;20388;-76
2022/06/03 04:56:47;;;;;;;12.13;3.70;;;;;;;;;;4995900;28;20085;-77
2022/06/03 04:59:13;;;;;;;5.03;3.20;;;;;;;;;;5008160;28;20113;-77
2022/06/03 05:01:48;;;;;;;11.45;3.67;;;;;;;;;;4998783;28;20132;-86
2022/06/03 05:04:14;;;;;;;11.88;4.00;;;;;;;;;;5002943;28;20180;-76
2022/06/03 05:06:43;;;;;;;8.98;4.10;;;;;;;;;;5015060;28;20022;-75
2022/06/03 05:09:12;;;;;;;8.15;3.92;;;;;;;;;;5015301;28;20029;-76
2022/06/03 05:11:41;;;;;;;5.82;3.85;;;;;;;;;;5014937;28;20186;-75
2022/06/03 05:14:24;;;;;;;11.07;3.90;;;;;;;;;;5003628;28;20033;-76
2022/06/03 05:17:20;;;;;;;6.75;4.07;;;;;;;;;;5001030;28;20033;-78
2022/06/03 05:19:59;;;;;;;10.65;5.05;;;;;;;;;;5012486;28;20033;-88
2022/06/03 05:22:25;;;;;;;13.07;5.93;;;;;;;;;;5013220;28;20491;-79
2022/06/03 05:24:57;;;;;;;9.32;4.10;;;;;;;;;;5011626;28;20758;-78
2022/06/03 05:27:37;;;;;;;7.50;4.07;;;;;;;;;;5009320;28;20030;-79
2022/06/03 05:30:12;;;;;;;7.78;3.70;;;;;;;;;;5013263;28;20022;-78
2022/06/03 05:32:47;;;;;;;10.35;4.07;;;;;;;;;;5013551;28;20042;-78
2022/06/03 05:35:22;;;;;;;13.07;4.45;;;;;;;;;;5018329;28;20076;-80
2022/06/03 05:37:51;;;;;;;8.07;3.83;;;;;;;;;;5010780;28;20080;-84
2022/06/03 05:40:34;;;;;;;9.68;3.60;;;;;;;;;;5014594;28;20032;-84
2022/06/03 05:43:17;;;;;;;10.15;3.60;;;;;;;;;;5019053;28;20049;-83
2022/06/03 05:46:09;;;;;;;9.63;3.67;;;;;;;;;;5005303;28;20022;-81
2022/06/03 05:48:35;;;;;;;4.35;3.15;;;;;;;;;;5003346;28;20283;-83
2022/06/03 05:51:04;;;;;;;6.50;3.20;;;;;;;;;;5012041;28;20049;-82
2022/06/03 05:53:49;;;;;;;10.50;4.13;;;;;;;;;;5011306;28;20101;-87
2022/06/03 05:56:15;;;;;;;7.07;3.28;;;;;;;;;;5009833;28;20014;-79
2022/06/03 05:59:03;;;;;;;9.18;3.75;;;;;;;;;;5011286;28;20032;-85
2022/06/03 06:01:37;;;;;;;8.38;3.40;;;;;;;;;;4983984;28;20043;-84
2022/06/03 06:04:29;;;;;;;7.82;3.47;;;;;;;;;;4972686;28;20097;-83
2022/06/03 06:07:00;;;;;;;14.32;3.95;;;;;;;;;;4969704;28;20066;-82
2022/06/03 06:09:29;;;;;;;13.90;4.28;;;;;;;;;;4970465;28;20023;-89
2022/06/03 06:12:01;;;;;;;6.93;3.13;;;;;;;;;;4967713;28;20070;-83
2022/06/03 06:14:44;;;;;;;7.25;3.10;;;;;;;;;;4973127;28;20035;-81
2022/06/03 06:17:37;;;;;;;8.53;3.40;;;;;;;;;;4971581;28;20444;-79
2022/06/03 06:20:23;;;;;;;6.35;3.30;;;;;;;;;;4969646;28;20373;-79
2022/06/03 06:22:49;;;;;;;11.27;3.60;;;;;;;;;;4962019;28;20412;-77
2022/06/03 06:25:21;;;;;;;7.20;3.35;;;;;;;;;;4972633;28;20023;-80
2022/06/03 06:27:50;;;;;;;37.55;4.80;;;;;;;;;;4972337;28;20041;-81
2022/06/03 06:30:17;;;;;;;28.17;5.60;;;;;;;;;;4967085;28;20045;-74
2022/06/03 06:33:03;;;;;;;18.23;4.25;;;;;;;;;;4970452;28;20395;-74
2022/06/03 06:35:52;;;;;;;5.97;3.35;;;;;;;;;;4914725;29;20501;-81
2022/06/03 06:38:30;;;;;;;7.80;3.55;;;;;;;;;;4914123;29;20028;-81
2022/06/03 06:41:15;;;;;;;12.80;3.65;;;;;;;;;;4915875;29;20047;-88
2022/06/03 06:43:41;;;;;;;10.60;3.58;;;;;;;;;;4898429;29;20060;-80
2022/06/03 06:46:12;;;;;;;13.02;3.70;;;;;;;;;;4912924;29;20044;-78
2022/06/03 06:48:41;;;;;;;11.75;3.88;;;;;;;;;;4914648;29;20035;-79
2022/06/03 06:51:16;;;;;;;15.00;3.70;;;;;;;;;;4911956;29;20039;-72
2022/06/03 06:53:45;;;;;;;10.10;3.20;;;;;;;;;;4913799;29;20062;-82
2022/06/03 06:56:16;;;;;;;8.02;3.38;;;;;;;;;;4913493;29;20506;-81
2022/06/03 06:59:09;;;;;;;17.55;3.58;;;;;;;;;;4914206;29;20032;-74
2022/06/03 07:01:45;;;;;;;13.80;4.40;;;;;;;;;;4919821;29;20502;-91
2022/06/03 07:04:14;;;;;;;9.15;3.40;;;;;;;;;;4929302;29;20508;-85
2022/06/03 07:06:42;;;;;;;15.05;4.15;;;;;;;;;;4934074;29;20039;-76
2022/06/03 07:09:11;;;;;;;12.13;3.90;;;;;;;;;;4933387;29;20092;-77
2022/06/03 07:11:56;;;;;;;13.07;3.97;;;;;;;;;;4938307;28;20039;-77
2022/06/03 07:14:24;;;;;;;10.80;3.33;;;;;;;;;;4988270;28;20536;-76
2022/06/03 07:20:01;;;;;;;13.23;4.07;;;;;;;;;;4988270;28;20450;-77
2022/06/03 07:22:39;;;;;;;4.82;2.90;;;;;;;;;;4985620;28;20033;-73
2022/06/03 07:25:08;;;;;;;8.15;3.35;;;;;;;;;;4986775;28;20399;-78
2022/06/03 07:27:43;;;;;;;21.45;4.80;;;;;;;;;;4990972;28;20493;-78
2022/06/03 07:30:17;;;;;;;19.88;4.05;;;;;;;;;;4993219;28;20042;-76
2022/06/03 07:33:00;;;;;;;10.13;3.50;;;;;;;;;;4990850;28;20364;-81
2022/06/03 07:35:32;;;;;;;10.57;3.40;;;;;;;;;;4984121;28;20076;-77
2022/06/03 07:38:01;;;;;;;9.88;3.63;;;;;;;;;;4990436;28;20026;-78
2022/06/03 07:40:46;;;;;;;22.58;5.18;;;;;;;;;;4997403;28;20026;-85
2022/06/03 07:43:19;;;;;;;10.75;3.95;;;;;;;;;;4995168;28;20028;-84
2022/06/03 07:45:49;;;;;;;12.98;4.70;;;;;;;;;;4997232;28;20389;-82
2022/06/03 07:48:17;;;;;;;10.80;3.92;;;;;;;;;;4988633;28;20081;-80
2022/06/03 07:50:46;;;;;;;20.58;4.65;;;;;;;;;;5011901;28;20453;-77
2022/06/03 07:53:18;;;;;;;7.68;3.67;;;;;;;;;;4993490;28;20030;-78
2022/06/03 07:55:44;;;;;;;14.48;3.72;;;;;;;;;;4990325;28;20026;-78
2022/06/03 07:58:17;;;;;;;31.70;14.77;;;;;;;;;;4996144;28;20030;-78
2022/06/03 08:00:46;;;;;;;;;;;;;;;;;;4997910;28;20030;-78
2022/06/03 08:03:15;;;;;;;16.60;5.47;;;;;;;;;;5016255;28;19914;-79
2022/06/03 08:05:43;;;;;;;52.83;7.10;;;;;;;;;;5009802;28;20034;-79
2022/06/03 08:10:59;;;;;;;32.08;5.40;;;;;;;;;;5012817;28;20110;-80
2022/06/03 08:13:31;;;;;;;18.40;4.90;;;;;;;;;;5012308;28;20165;-82
2022/06/03 08:16:05;;;;;;;51.83;7.90;;;;;;;;;;5012157;28;20037;-77
2022/06/03 08:18:40;;;;;;;21.23;4.68;;;;;;;;;;5012059;28;20026;-86
2022/06/03 08:21:08;;;;;;;11.10;3.88;;;;;;;;;;5002681;28;20476;-81
2022/06/03 08:23:35;;;;;;;16.52;5.15;;;;;;;;;;5015452;28;20025;-81
2022/06/03 08:26:04;;;;;;;13.05;4.28;;;;;;;;;;5008137;28;20385;-82
2022/06/03 08:28:33;;;;;;;18.05;3.35;;;;;;;;;;5015387;28;20033;-81
2022/06/03 08:31:00;;;;;;;7.95;3.00;;;;;;;;;;5014517;28;20041;-82
2022/06/03 08:33:45;;;;;;;21.92;3.47;;;;;;;;;;5015979;28;20030;-78
2022/06/03 08:36:13;;;;;;;8.48;3.03;;;;;;;;;;5012441;28;20157;-79
2022/06/03 08:38:41;;;;;;;3.95;2.58;;;;;;;;;;5015238;28;20018;-81
2022/06/03 08:41:11;;;;;;;4.18;2.45;;;;;;;;;;5013833;28;20026;-80
2022/06/03 08:43:49;;;;;;;6.63;2.75;;;;;;;;;;5015892;28;20022;-80
2022/06/03 08:46:35;;;;;;;6.03;2.67;;;;;;;;;;5014270;28;20045;-82
2022/06/03 08:49:03;;;;;;;3.88;2.67;;;;;;;;;;5014732;28;20022;-82
2022/06/03 08:51:46;;;;;;;27.73;3.72;;;;;;;;;;5010365;28;20052;-79
2022/06/03 08:54:42;;;;;;;41.53;5.50;;;;;;;;;;5005813;28;20046;-77
2022/06/03 08:57:13;;;;;;;6.25;3.15;;;;;;;;;;4913933;29;20044;-78
2022/06/03 08:59:39;;;;;;;29.58;4.10;;;;;;;;;;4916809;29;20028;-83
2022/06/03 09:02:10;;;;;;;4.20;2.85;;;;;;;;;;4915184;29;20498;-84
2022/06/03 09:04:48;;;;;;;4.30;2.80;;;;;;;;;;4917346;29;20040;-79
2022/06/03 09:07:30;;;;;;;12.60;3.45;;;;;;;;;;4912795;29;20539;-79
2022/06/03 09:10:19;;;;;;;8.70;3.10;;;;;;;;;;4908076;29;20044;-75
2022/06/03 09:12:45;;;;;;;11.82;2.88;;;;;;;;;;4912434;29;20044;-76
2022/06/03 09:15:13;;;;;;;23.88;4.53;;;;;;;;;;4914496;29;20045;-84
2022/06/03 09:17:48;;;;;;;5.57;2.97;;;;;;;;;;4916841;29;20110;-87
2022/06/03 09:20:46;;;;;;;11.68;3.38;;;;;;;;;;4899810;29;20040;-88
2022/06/03 09:23:16;;;;;;;10.07;3.00;;;;;;;;;;4862729;29;20194;-86
2022/06/03 09:25:52;;;;;;;4.45;2.72;;;;;;;;;;4864099;29;20076;-90
2022/06/03 09:28:22;;;;;;;3.95;2.67;;;;;;;;;;4862879;29;20048;-89
2022/06/03 09:30:50;;;;;;;4.85;3.13;;;;;;;;;;4879297;29;20157;-88
2022/06/03 09:33:18;;;;;;;5.85;3.13;;;;;;;;;;4900917;28;20369;-88
2022/06/03 09:35:46;;;;;;;4.32;3.10;;;;;;;;;;4974402;28;20035;-87
2022/06/03 09:38:13;;;;;;;5.75;2.70;;;;;;;;;;4974807;28;20066;-88
2022/06/03 09:40:43;;;;;;;5.72;2.80;;;;;;;;;;4949371;29;20509;-88
2022/06/03 09:43:20;;;;;;;15.00;4.03;;;;;;;;;;4938885;29;20090;-88
2022/06/03 09:45:47;;;;;;;8.18;2.92;;;;;;;;;;4954188;28;20060;-87
2022/06/03 09:48:20;;;;;;;5.55;2.92;;;;;;;;;;4954739;29;20038;-88
2022/06/03 09:50:47;;;;;;;7.35;3.08;;;;;;;;;;4957264;28;20508;-85
2022/06/03 09:53:13;;;;;;;5.35;3.10;;;;;;;;;;4972708;28;20038;-86
2022/06/03 09:55:41;;;;;;;8.80;3.10;;;;;;;;;;4976857;28;20044;-87
2022/06/03 09:58:12;;;;;;;11.93;2.90;;;;;;;;;;4983729;28;20561;-87
2022/06/03 10:00:42;;;;;;;19.02;4.38;;;;;;;;;;4997009;28;20487;-86
2022/06/03 10:03:09;;;;;;;10.40;3.20;;;;;;;;;;5014505;28;20046;-86
2022/06/03 10:05:35;;;;;;;15.70;4.55;;;;;;;;;;4997258;28;20081;-88
2022/06/03 10:08:03;;;;;;;5.28;3.17;;;;;;;;;;5013352;28;20050;-86
2022/06/03 10:13:15;;;;;;;3.83;2.85;;;;;;;;;;5001017;28;20494;-88
2022/06/03 10:15:53;;;;;;;5.57;2.90;;;;;;;;;;4977839;28;20463;-86
2022/06/03 10:18:20;;;;;;;4.20;2.90;;;;;;;;;;4992998;28;20026;-85
2022/06/03 10:20:46;;;;;;;3.65;2.80;;;;;;;;;;5014598;28;20033;-86
2022/06/03 10:23:15;;;;;;;5.78;2.85;;;;;;;;;;4995247;28;20029;-87
2022/06/03 10:25:46;;;;;;;7.40;3.08;;;;;;;;;;4997195;28;20033;-86
2022/06/03 10:28:14;;;;;;;5.85;2.67;;;;;;;;;;5012734;28;20045;-86
2022/06/03 10:30:41;;;;;;;12.30;4.10;;;;;;;;;;4996592;28;20368;-85
2022/06/03 10:33:18;;;;;;;11.55;3.38;;;;;;;;;;4994434;28;20048;-88
2022/06/03 10:35:44;;;;;;;9.13;3.10;;;;;;;;;;5002419;28;20057;-86
2022/06/03 10:38:10;;;;;;;12.07;3.40;;;;;;;;;;4996877;28;20025;-88
2022/06/03 10:40:39;;;;;;;6.57;3.17;;;;;;;;;;4994981;28;20044;-86
2022/06/03 10:43:06;;;;;;;14.23;4.03;;;;;;;;;;4997008;28;20026;-86
2022/06/03 10:45:36;;;;;;;13.95;3.30;;;;;;;;;;4981005;28;20026;-86
2022/06/03 10:48:19;;;;;;;7.57;3.15;;;;;;;;;;4996645;28;20026;-88
2022/06/03 10:50:45;;;;;;;6.53;3.15;;;;;;;;;;4994545;28;20503;-86
2022/06/03 11:01:42;;;;;;;15.75;4.13;;;;;;;;;;4999291;28;20417;-87
2022/06/03 11:04:22;;;;;;;8.02;3.60;;;;;;;;;;4977158;28;20019;-88
2022/06/03 11:06:48;;;;;;;6.82;2.85;;;;;;;;;;4992748;28;20028;-88
2022/06/03 11:09:15;;;;;;;9.10;3.42;;;;;;;;;;4996660;28;20034;-87
2022/06/03 11:11:47;;;;;;;13.15;3.40;;;;;;;;;;5013318;28;20038;-88
2022/06/03 11:14:24;;;;;;;11.18;3.20;;;;;;;;;;5011624;28;20119;-87
2022/06/03 11:16:53;;;;;;;7.05;3.10;;;;;;;;;;4985501;28;20389;-87
2022/06/03 11:19:20;;;;;;;19.27;3.88;;;;;;;;;;4976778;28;20058;-89
2022/06/03 11:21:46;;;;;;;8.65;3.38;;;;;;;;;;4977741;28;20022;-87
2022/06/03 11:24:12;;;;;;;7.82;3.08;;;;;;;;;;4977036;28;20077;-88
2022/06/03 11:26:40;;;;;;;11.57;3.20;;;;;;;;;;4979999;28;20068;-88
2022/06/03 11:29:15;;;;;;;8.13;3.00;;;;;;;;;;4996059;28;20029;-87
2022/06/03 11:31:43;;;;;;;10.40;3.25;;;;;;;;;;4995667;28;20056;-87
2022/06/03 11:34:14;;;;;;;6.22;2.97;;;;;;;;;;4993845;28;20397;-86
2022/06/03 11:36:51;;;;;;;10.68;3.05;;;;;;;;;;5013357;28;20026;-89
2022/06/03 11:39:17;;;;;;;5.50;2.92;;;;;;;;;;5012775;28;20030;-87
2022/06/03 11:41:50;;;;;;;7.00;3.45;;;;;;;;;;4995857;28;20026;-87
2022/06/03 11:44:34;;;;;;;4.43;2.72;;;;;;;;;;4982901;28;20124;-86
2022/06/03 11:47:17;;;;;;;6.90;2.88;;;;;;;;;;4993658;28;20027;-87
2022/06/03 11:49:45;;;;;;;6.32;3.00;;;;;;;;;;4994823;28;20451;-87
2022/06/03 11:52:11;;;;;;;6.22;2.95;;;;;;;;;;5013353;28;20056;-87
2022/06/03 11:54:38;;;;;;;5.28;2.65;;;;;;;;;;5011812;28;20065;-87
2022/06/03 11:57:07;;;;;;;6.40;3.03;;;;;;;;;;5009410;28;20027;-87
2022/06/03 11:59:37;;;;;;;3.30;2.65;;;;;;;;;;4983486;28;20037;-87
2022/06/03 12:02:09;;;;;;;4.35;2.80;;;;;;;;;;4976023;28;20476;-88
2022/06/03 12:04:39;;;;;;;65.35;6.35;;;;;;;;;;4976609;28;20058;-87
2022/06/03 12:07:11;;;;;;;6.25;3.10;;;;;;;;;;4978101;28;20361;-86
2022/06/03 12:09:45;;;;;;;8.33;3.67;;;;;;;;;;5009175;28;20112;-86
2022/06/03 12:15:33;;;;;;;7.05;2.80;;;;;;;;;;4993893;28;20040;-87
2022/06/03 12:18:11;;;;;;;8.73;2.72;;;;;;;;;;4993743;28;20052;-85
2022/06/03 12:20:38;;;;;;;9.38;3.22;;;;;;;;;;4984553;28;20030;-85
2022/06/03 12:23:13;;;;;;;4.30;2.80;;;;;;;;;;4995837;28;20026;-86
2022/06/03 12:25:44;;;;;;;4.72;2.70;;;;;;;;;;4998828;28;20025;-85
2022/06/03 12:28:35;;;;;;;2.80;2.50;;;;;;;;;;5016638;28;20026;-86
2022/06/03 12:31:04;;;;;;;5.82;2.78;;;;;;;;;;5009352;28;20396;-85
2022/06/03 12:33:30;;;;;;;5.03;2.80;;;;;;;;;;5011655;28;20036;-86
2022/06/03 12:35:59;;;;;;;9.95;3.22;;;;;;;;;;5016006;28;20022;-85
2022/06/03 12:38:32;;;;;;;15.98;3.22;;;;;;;;;;4998694;28;20022;-86
2022/06/03 12:41:00;;;;;;;5.40;2.90;;;;;;;;;;5015350;28;20030;-86
2022/06/03 12:43:32;;;;;;;7.95;3.10;;;;;;;;;;4979366;28;20058;-85
2022/06/03 12:46:00;;;;;;;4.85;2.70;;;;;;;;;;4979250;28;20029;-85
2022/06/03 12:48:51;;;;;;;14.07;3.17;;;;;;;;;;4997625;28;20467;-86
2022/06/03 12:51:28;;;;;;;4.38;2.63;;;;;;;;;;4936451;29;20474;-85
2022/06/03 12:53:59;;;;;;;6.95;3.00;;;;;;;;;;4921766;29;20039;-87
2022/06/03 12:56:36;;;;;;;7.20;2.67;;;;;;;;;;4936738;29;20044;-85
2022/06/03 12:59:11;;;;;;;6.05;2.97;;;;;;;;;;4936137;29;20050;-86
2022/06/03 13:02:07;;;;;;;11.27;3.70;;;;;;;;;;4935141;29;20510;-86
2022/06/03 13:04:36;;;;;;;12.80;4.43;;;;;;;;;;4933602;29;20036;-87
2022/06/03 13:07:21;;;;;;;8.65;3.42;;;;;;;;;;4936432;29;20028;-87
2022/06/03 13:09:52;;;;;;;6.05;2.78;;;;;;;;;;4916723;29;20179;-87
2022/06/03 13:12:28;;;;;;;5.47;2.50;;;;;;;;;;4917443;29;20141;-86
2022/06/03 13:14:54;;;;;;;4.25;2.53;;;;;;;;;;4931428;29;20078;-86
2022/06/03 13:17:59;;;;;;;3.53;2.70;;;;;;;;;;4936204;29;20031;-87
2022/06/03 13:20:44;;;;;;;3.22;2.70;;;;;;;;;;4866778;29;20021;-85
2022/06/03 13:23:29;;;;;;;3.33;2.30;;;;;;;;;;4863917;29;20144;-84
2022/06/03 13:25:55;;;;;;;7.00;2.28;;;;;;;;;;4880718;29;20045;-86
2022/06/03 13:28:33;;;;;;;3.92;2.30;;;;;;;;;;4918147;29;20619;-86
2022/06/03 13:31:20;;;;;;;27.58;3.17;;;;;;;;;;4919689;29;20102;-87
2022/06/03 13:34:04;;;;;;;7.72;2.88;;;;;;;;;;4917860;29;20064;-85
2022/06/03 13:36:36;;;;;;;3.33;2.17;;;;;;;;;;4933112;29;20122;-86
2022/06/03 13:39:03;;;;;;;5.75;2.30;;;;;;;;;;4919793;29;20067;-86
2022/06/03 13:44:38;;;;;;;4.65;2.20;;;;;;;;;;4935169;29;20095;-84
2022/06/03 13:47:11;;;;;;;3.10;2.33;;;;;;;;;;4920105;29;20064;-86
2022/06/03 13:49:39;;;;;;;26.27;4.07;;;;;;;;;;4916305;29;20176;-87
2022/06/03 13:52:05;;;;;;;5.28;2.28;;;;;;;;;;5001836;28;20050;-85
2022/06/03 13:54:34;;;;;;;8.20;2.75;;;;;;;;;;5014871;28;20022;-86
2022/06/03 13:57:11;;;;;;;3.85;2.15;;;;;;;;;;4986001;28;20030;-84
2022/06/03 13:59:41;;;;;;;5.18;2.30;;;;;;;;;;4994244;28;20038;-82
2022/06/03 14:02:30;;;;;;;4.53;2.28;;;;;;;;;;5006131;28;20131;-84
2022/06/03 14:05:01;;;;;;;15.02;3.50;;;;;;;;;;4913876;29;20079;-85
2022/06/03 14:07:41;;;;;;;4.78;2.47;;;;;;;;;;4912842;29;20039;-86
2022/06/03 14:10:12;;;;;;;7.10;2.90;;;;;;;;;;4911375;29;20210;-85
2022/06/03 14:12:42;;;;;;;22.60;3.30;;;;;;;;;;4915314;29;20036;-85
2022/06/03 14:15:11;;;;;;;4.53;2.60;;;;;;;;;;4899475;29;20025;-86
2022/06/03 14:17:46;;;;;;;5.30;2.28;;;;;;;;;;4895408;29;20032;-86
2022/06/03 14:20:14;;;;;;;11.95;2.90;;;;;;;;;;4912485;29;20098;-85
2022/06/03 14:22:43;;;;;;;5.97;2.30;;;;;;;;;;4917712;29;20083;-87
2022/06/03 14:25:12;;;;;;;4.97;2.60;;;;;;;;;;4909129;29;20036;-80
2022/06/03 14:27:44;;;;;;;6.78;2.50;;;;;;;;;;4913223;29;20044;-80
2022/06/03 14:30:16;;;;;;;3.17;2.20;;;;;;;;;;4918094;29;20032;-79
2022/06/03 14:32:46;;;;;;;27.13;3.10;;;;;;;;;;4908516;29;20083;-79
2022/06/03 14:35:18;;;;;;;9.80;3.00;;;;;;;;;;4911510;29;20581;-75
2022/06/03 14:37:49;;;;;;;7.90;2.75;;;;;;;;;;4896737;29;20537;-81
2022/06/03 14:40:26;;;;;;;7.85;2.83;;;;;;;;;;4911755;29;20419;-77
2022/06/03 14:42:55;;;;;;;6.35;2.88;;;;;;;;;;4996386;28;20484;-78
2022/06/03 14:45:22;;;;;;;15.88;3.35;;;;;;;;;;5007538;28;20037;-78
2022/06/03 14:47:53;;;;;;;4.25;2.40;;;;;;;;;;5006030;28;20476;-78
2022/06/03 14:50:30;;;;;;;4.90;2.50;;;;;;;;;;5006539;28;20026;-82
2022/06/03 14:52:56;;;;;;;7.50;2.30;;;;;;;;;;4994701;28;20033;-92
2022/06/03 14:55:42;;;;;;;3.63;2.42;;;;;;;;;;4995553;28;20476;-90
2022/06/03 14:58:16;;;;;;;7.38;2.90;;;;;;;;;;4995338;28;20014;-92
2022/06/03 15:01:01;;;;;;;7.32;2.70;;;;;;;;;;5010701;28;20383;-93
2022/06/03 15:03:39;;;;;;;33.13;4.57;;;;;;;;;;4993144;28;20148;-87
2022/06/03 15:06:20;;;;;;;15.70;3.47;;;;;;;;;;5009869;28;20388;-85
2022/06/03 15:08:50;;;;;;;8.48;2.88;;;;;;;;;;5006089;28;20017;-84
2022/06/03 15:11:35;;;;;;;5.05;2.45;;;;;;;;;;4992899;28;20030;-83
2022/06/03 15:14:12;;;;;;;6.00;2.65;;;;;;;;;;5010232;28;20468;-86
2022/06/03 15:16:51;;;;;;;7.00;2.67;;;;;;;;;;5006407;28;20111;-84
2022/06/03 15:19:32;;;;;;;4.15;2.40;;;;;;;;;;4994796;28;20033;-83
2022/06/03 15:21:59;;;;;;;6.47;3.38;;;;;;;;;;4988035;28;20366;-80
2022/06/03 15:24:25;;;;;;;9.88;3.33;;;;;;;;;;5010224;28;20049;-85
2022/06/03 15:26:52;;;;;;;8.23;2.53;;;;;;;;;;5013048;28;20373;-81
2022/06/03 15:29:20;;;;;;;14.00;3.25;;;;;;;;;;5010624;28;20037;-80
2022/06/03 15:31:50;;;;;;;29.70;3.90;;;;;;;;;;5006660;28;20038;-84
2022/06/03 15:34:22;;;;;;;6.53;2.33;;;;;;;;;;5008310;28;20511;-80
2022/06/03 15:36:49;;;;;;;4.97;2.40;;;;;;;;;;5010105;28;20057;-80
2022/06/03 15:39:24;;;;;;;4.50;2.50;;;;;;;;;;5010982;28;20104;-88
2022/06/03 15:41:51;;;;;;;5.18;2.92;;;;;;;;;;4988969;28;20042;-85
2022/06/03 15:44:35;;;;;;;5.05;2.63;;;;;;;;;;4994475;28;20050;-86
2022/06/03 15:47:04;;;;;;;6.35;2.78;;;;;;;;;;5002667;28;20558;-76
2022/06/03 15:49:32;;;;;;;4.00;2.55;;;;;;;;;;5005498;28;20030;-80